Time;durP1;ratioP1;P1;durP2;ratioP2;P2;SDS_P1;SDS_P2;PMS_P1;PMS_P2;Temp;Humidity;BMP_temperature;BMP_pressure;BME280_temperature;BME280_humidity;BME280_pressure;Samples;Min_cycle;Max_cycle;Signal;HPM_P1;HPM_P2
2022/07/26 00:01:57;;;;;;;7.35;3.25;;;;;;;27.02;31.24;99064.34;4455311;32;34890;-59
2022/07/26 00:04:25;;;;;;;8.48;3.53;;;;;;;26.95;31.23;99059.81;4454827;32;33554;-59
2022/07/26 00:06:52;;;;;;;6.55;3.22;;;;;;;26.99;30.93;99054.69;4461441;32;34938;-59
2022/07/26 00:09:20;;;;;;;6.62;3.20;;;;;;;26.96;31.01;99055.16;4454139;32;32900;-59
2022/07/26 00:11:47;;;;;;;7.37;3.20;;;;;;;26.83;31.45;99053.47;4466506;32;32625;-61
2022/07/26 00:14:15;;;;;;;5.70;3.30;;;;;;;26.85;30.94;99050.50;4467705;32;34886;-61
2022/07/26 00:16:42;;;;;;;7.22;3.42;;;;;;;26.83;30.86;99050.72;4468017;32;32291;-60
2022/07/26 00:19:10;;;;;;;7.03;3.42;;;;;;;26.82;30.80;99042.75;4465901;32;33335;-59
2022/07/26 00:21:38;;;;;;;5.18;3.03;;;;;;;26.81;30.63;99039.16;4462000;32;32455;-59
2022/07/26 00:24:07;;;;;;;9.73;3.70;;;;;;;26.81;30.96;99043.81;4467428;32;35137;-58
2022/07/26 00:26:36;;;;;;;6.87;3.10;;;;;;;26.80;30.97;99039.38;4465461;32;33831;-61
2022/07/26 00:29:04;;;;;;;4.93;3.10;;;;;;;26.65;31.02;99028.88;4452063;32;33076;-59
2022/07/26 00:31:32;;;;;;;10.70;3.17;;;;;;;26.74;30.88;99027.44;4455142;32;34064;-61
2022/07/26 00:34:00;;;;;;;7.12;3.30;;;;;;;26.69;30.90;99027.34;4451509;32;33797;-59
2022/07/26 00:36:28;;;;;;;5.28;3.45;;;;;;;26.66;30.86;99034.13;4451150;32;34266;-59
2022/07/26 00:38:56;;;;;;;6.18;3.08;;;;;;;26.67;30.89;99027.56;4458788;32;33536;-61
2022/07/26 00:41:23;;;;;;;6.80;3.50;;;;;;;26.59;31.25;99029.84;4454186;32;33825;-59
2022/07/26 00:43:56;;;;;;;7.50;3.22;;;;;;;26.70;30.89;99029.81;4462973;32;34106;-59
2022/07/26 00:46:23;;;;;;;5.78;3.10;;;;;;;26.68;30.85;99029.25;4453670;32;33807;-59
2022/07/26 00:48:51;;;;;;;10.00;3.20;;;;;;;26.58;30.96;99034.50;4454088;32;32363;-60
2022/07/26 00:51:20;;;;;;;5.40;3.17;;;;;;;26.64;31.16;99028.03;4462536;32;34938;-59
2022/07/26 00:53:48;;;;;;;7.85;3.85;;;;;;;26.43;31.69;99023.91;4459736;32;32481;-58
2022/07/26 00:56:16;;;;;;;14.30;3.20;;;;;;;26.42;31.74;99016.75;4447865;32;32655;-60
2022/07/26 00:58:43;;;;;;;6.62;3.45;;;;;;;26.44;31.76;99025.56;4454342;32;34067;-58
2022/07/26 01:01:11;;;;;;;9.80;3.17;;;;;;;26.52;31.71;99020.84;4454027;32;33950;-58
2022/07/26 01:03:39;;;;;;;7.12;3.45;;;;;;;26.44;31.93;99011.84;4453806;32;34208;-59
2022/07/26 01:06:07;;;;;;;6.62;3.50;;;;;;;26.33;32.38;99009.94;4447361;32;34939;-58
2022/07/26 01:08:35;;;;;;;5.97;3.05;;;;;;;26.38;32.26;99001.81;4453508;32;34208;-61
2022/07/26 01:11:03;;;;;;;7.15;2.95;;;;;;;26.49;32.22;98997.47;4455868;32;34815;-61
2022/07/26 01:13:31;;;;;;;5.60;3.40;;;;;;;26.44;32.17;99000.06;4469316;32;35038;-61
2022/07/26 01:16:02;;;;;;;6.10;3.55;;;;;;;26.42;32.00;98994.81;4467824;32;33670;-58
2022/07/26 01:18:30;;;;;;;5.45;3.35;;;;;;;26.33;32.14;98993.47;4467152;32;33522;-58
2022/07/26 01:20:59;;;;;;;6.85;2.85;;;;;;;26.31;32.08;98997.53;4454019;32;32784;-59
2022/07/26 01:23:27;;;;;;;6.78;3.62;;;;;;;26.15;32.40;98991.62;4446038;32;35209;-58
2022/07/26 01:25:58;;;;;;;8.00;3.40;;;;;;;26.19;32.14;98994.75;4441459;32;34508;-59
2022/07/26 01:28:26;;;;;;;5.40;3.15;;;;;;;26.19;32.14;98989.25;4460047;32;33477;-61
2022/07/26 01:30:54;;;;;;;8.02;3.22;;;;;;;26.14;32.16;98986.41;4456836;32;33867;-60
2022/07/26 01:33:22;;;;;;;6.90;3.10;;;;;;;26.18;32.01;98988.44;4460578;32;33983;-58
2022/07/26 01:35:49;;;;;;;11.07;3.85;;;;;;;26.23;32.06;98982.25;4467117;32;33830;-58
2022/07/26 01:38:17;;;;;;;9.40;3.08;;;;;;;26.09;32.65;98975.28;4453173;32;32702;-59
2022/07/26 01:40:44;;;;;;;10.95;3.42;;;;;;;26.14;32.59;98968.03;4455813;32;33157;-59
2022/07/26 01:43:12;;;;;;;7.20;3.53;;;;;;;26.12;32.71;98964.69;4464542;32;35303;-59
2022/07/26 01:45:40;;;;;;;7.85;3.33;;;;;;;26.10;32.76;98964.09;4455471;32;33923;-59
2022/07/26 01:48:08;;;;;;;5.40;3.60;;;;;;;26.23;32.59;98961.16;4461301;32;33053;-60
2022/07/26 01:50:37;;;;;;;5.40;3.00;;;;;;;26.14;32.97;98965.28;4453863;32;34836;-58
2022/07/26 01:53:04;;;;;;;5.80;3.10;;;;;;;26.23;32.78;98968.53;4453053;32;32306;-58
2022/07/26 01:55:33;;;;;;;5.03;3.33;;;;;;;26.15;32.57;98964.22;4452792;32;33514;-58
2022/07/26 01:58:03;;;;;;;6.45;3.05;;;;;;;26.10;32.42;98960.50;4453620;32;33233;-59
2022/07/26 02:00:32;;;;;;;5.93;3.22;;;;;;;26.05;32.25;98957.63;4453685;32;32290;-61
2022/07/26 02:03:00;;;;;;;5.25;3.30;;;;;;;26.12;32.02;98956.44;4454160;32;33984;-59
2022/07/26 02:05:28;;;;;;;6.95;3.33;;;;;;;26.02;32.24;98956.19;4467072;32;34550;-60
2022/07/26 02:07:56;;;;;;;7.55;3.10;;;;;;;25.92;32.48;98958.66;4462200;32;34447;-61
2022/07/26 02:10:59;;;;;;;8.80;3.45;;;;;;;26.01;32.56;98966.31;4462011;32;32589;-60
2022/07/26 02:13:13;;;;;;;5.10;3.28;;;;;;;25.99;32.94;98951.19;4453671;32;33837;-58
2022/07/26 02:15:41;;;;;;;5.55;3.20;;;;;;;26.07;32.93;98963.69;4461786;32;34749;-58
2022/07/26 02:18:09;;;;;;;11.23;3.30;;;;;;;25.89;32.89;98964.63;4453393;32;33284;-57
2022/07/26 02:20:36;;;;;;;6.68;3.50;;;;;;;25.90;32.64;98966.28;4460987;32;32605;-60
2022/07/26 02:23:04;;;;;;;6.03;3.12;;;;;;;25.78;32.72;98969.81;4461895;32;34106;-60
2022/07/26 02:25:32;;;;;;;7.07;3.20;;;;;;;25.75;32.74;98966.69;4468702;32;34027;-60
2022/07/26 02:28:00;;;;;;;7.47;3.87;;;;;;;25.70;32.60;98970.09;4460136;32;33668;-58
2022/07/26 02:30:28;;;;;;;5.82;3.10;;;;;;;25.68;32.71;98975.00;4458970;32;33515;-59
2022/07/26 02:32:55;;;;;;;8.85;3.62;;;;;;;25.85;32.44;98969.72;4449653;32;33061;-59
2022/07/26 02:35:23;;;;;;;7.93;3.40;;;;;;;25.82;32.67;98964.72;4467835;32;34702;-60
2022/07/26 02:37:51;;;;;;;6.18;3.53;;;;;;;25.83;32.78;98969.12;4455277;32;33248;-59
2022/07/26 02:40:18;;;;;;;7.82;3.87;;;;;;;25.85;32.49;98964.25;4454745;32;33993;-60
2022/07/26 02:42:46;;;;;;;7.82;3.83;;;;;;;25.79;32.67;98976.94;4453041;32;34962;-59
2022/07/26 02:45:13;;;;;;;6.95;3.00;;;;;;;25.73;32.72;98977.88;4453312;32;33958;-59
2022/07/26 02:47:49;;;;;;;7.07;3.62;;;;;;;25.72;32.94;98973.47;4453363;32;33479;-60
2022/07/26 02:50:17;;;;;;;5.45;3.00;;;;;;;25.74;32.97;98965.81;4465247;32;34920;-59
2022/07/26 02:52:46;;;;;;;6.70;3.30;;;;;;;25.79;33.12;98965.16;4468909;32;33854;-59
2022/07/26 02:55:16;;;;;;;7.87;3.53;;;;;;;25.76;33.34;98960.97;4464574;32;33684;-60
2022/07/26 02:57:43;;;;;;;6.80;3.72;;;;;;;25.74;33.28;98960.34;4468577;32;32881;-59
2022/07/26 03:00:15;;;;;;;5.57;3.42;;;;;;;25.78;33.23;98964.31;4464230;32;33854;-59
2022/07/26 03:02:42;;;;;;;7.37;3.85;;;;;;;25.72;33.15;98967.97;4468455;32;35074;-58
2022/07/26 03:05:11;;;;;;;5.32;3.25;;;;;;;25.79;32.99;98963.25;4463837;32;33602;-58
2022/07/26 03:07:38;;;;;;;11.32;3.70;;;;;;;25.77;32.98;98967.28;4458646;32;34534;-59
2022/07/26 03:10:06;;;;;;;5.03;3.05;;;;;;;25.71;33.22;98971.78;4439863;32;33982;-59
2022/07/26 03:12:34;;;;;;;8.32;4.25;;;;;;;25.67;33.50;98967.00;4458978;32;33864;-59
2022/07/26 03:15:02;;;;;;;7.22;4.05;;;;;;;25.69;33.48;98970.34;4453081;32;34126;-59
2022/07/26 03:17:30;;;;;;;6.15;3.55;;;;;;;25.58;33.83;98969.22;4453436;32;33137;-58
2022/07/26 03:19:59;;;;;;;5.03;2.72;;;;;;;25.63;33.64;98963.87;4464374;32;34877;-58
2022/07/26 03:22:26;;;;;;;6.45;3.45;;;;;;;25.69;33.46;98975.84;4453713;32;33831;-58
2022/07/26 03:24:54;;;;;;;5.72;3.25;;;;;;;25.64;33.72;98978.41;4453077;32;33942;-59
2022/07/26 03:27:21;;;;;;;6.50;3.65;;;;;;;25.62;33.79;98975.94;4453071;32;33356;-60
2022/07/26 03:29:49;;;;;;;8.85;3.72;;;;;;;25.57;33.81;98978.50;4463622;32;34490;-61
2022/07/26 03:32:16;;;;;;;8.05;3.80;;;;;;;25.61;34.00;98971.50;4468489;32;34078;-60
2022/07/26 03:34:44;;;;;;;7.47;3.58;;;;;;;25.64;33.93;98973.78;4468294;32;34672;-58
2022/07/26 03:37:12;;;;;;;7.15;3.92;;;;;;;25.69;33.84;98971.19;4462241;32;32204;-59
2022/07/26 03:39:39;;;;;;;5.95;3.53;;;;;;;25.65;33.93;98969.97;4456653;32;34042;-60
2022/07/26 03:42:07;;;;;;;10.75;4.35;;;;;;;25.64;33.93;98962.81;4455613;32;33946;-61
2022/07/26 03:44:34;;;;;;;6.07;3.67;;;;;;;25.67;33.96;98975.22;4453198;32;34604;-60
2022/07/26 03:47:02;;;;;;;6.75;3.95;;;;;;;25.62;34.03;98966.84;4460531;32;31812;-59
2022/07/26 03:49:30;;;;;;;6.37;3.30;;;;;;;25.57;34.14;98956.59;4453745;32;34559;-60
2022/07/26 03:51:58;;;;;;;6.35;3.83;;;;;;;25.69;33.99;98952.00;4464309;32;34998;-60
2022/07/26 03:54:25;;;;;;;8.10;4.05;;;;;;;25.73;33.77;98955.94;4457480;32;34990;-59
2022/07/26 03:56:53;;;;;;;6.43;3.92;;;;;;;25.76;33.73;98960.12;4457450;32;33346;-58
2022/07/26 03:59:22;;;;;;;14.73;4.35;;;;;;;25.82;33.69;98958.41;4463363;32;33811;-61
2022/07/26 04:01:50;;;;;;;7.65;4.43;;;;;;;25.81;33.89;98943.88;4454632;32;33926;-58
2022/07/26 04:04:18;;;;;;;5.55;3.90;;;;;;;25.97;33.45;98947.81;4464975;32;32875;-58
2022/07/26 04:06:51;;;;;;;11.43;4.22;;;;;;;26.01;33.63;98938.09;4457172;32;34986;-60
2022/07/26 04:09:19;;;;;;;7.45;4.93;;;;;;;26.07;33.50;98939.88;4461067;32;32764;-60
2022/07/26 04:11:47;;;;;;;7.50;4.15;;;;;;;26.17;33.39;98939.31;4454099;32;33984;-59
2022/07/26 04:14:15;;;;;;;7.93;4.35;;;;;;;26.22;33.60;98934.75;4456068;32;33812;-58
2022/07/26 04:16:42;;;;;;;7.90;4.15;;;;;;;26.32;33.83;98933.34;4456165;32;34512;-60
2022/07/26 04:19:10;;;;;;;7.97;4.30;;;;;;;26.36;33.38;98931.84;4466550;32;33760;-60
2022/07/26 04:21:37;;;;;;;7.18;4.37;;;;;;;26.35;33.28;98936.47;4467465;32;33997;-59
2022/07/26 04:24:06;;;;;;;11.25;5.32;;;;;;;26.38;33.33;98940.63;4467838;32;33594;-63
2022/07/26 04:26:34;;;;;;;12.20;4.20;;;;;;;26.30;33.69;98933.59;4463585;32;33015;-62
2022/07/26 04:29:01;;;;;;;7.15;3.97;;;;;;;26.20;34.10;98933.34;4462820;32;32840;-62
2022/07/26 04:31:31;;;;;;;9.07;3.95;;;;;;;26.16;34.39;98935.75;4467895;32;33926;-62
2022/07/26 04:34:03;;;;;;;8.00;4.15;;;;;;;26.28;33.95;98962.34;4455307;32;32883;-58
2022/07/26 04:36:31;;;;;;;9.18;4.68;;;;;;;26.06;34.46;99004.00;4455700;32;33289;-61
2022/07/26 04:38:58;;;;;;;13.52;5.37;;;;;;;25.47;35.26;99071.37;4468443;32;35072;-61
2022/07/26 04:41:26;;;;;;;10.43;5.10;;;;;;;24.94;36.42;99045.31;4465384;32;33979;-61
2022/07/26 04:43:55;;;;;;;10.52;5.20;;;;;;;25.68;34.70;99026.22;4457072;32;34005;-58
2022/07/26 04:46:23;;;;;;;7.65;4.72;;;;;;;25.40;35.54;99032.25;4453546;32;34006;-59
2022/07/26 04:48:51;;;;;;;9.80;4.40;;;;;;;25.51;35.19;99026.00;4453122;32;34872;-58
2022/07/26 04:51:19;;;;;;;10.23;5.03;;;;;;;25.68;34.63;99029.81;4464960;32;32818;-58
2022/07/26 04:53:47;;;;;;;9.35;5.00;;;;;;;25.89;34.39;99020.28;4464652;32;34511;-58
2022/07/26 04:56:14;;;;;;;9.85;5.43;;;;;;;26.20;33.72;99008.25;4466890;32;34439;-58
2022/07/26 04:58:42;;;;;;;10.20;5.00;;;;;;;26.34;33.84;99022.56;4463034;32;34063;-58
2022/07/26 05:01:09;;;;;;;9.18;4.95;;;;;;;26.12;34.29;99013.22;4452745;32;33976;-58
2022/07/26 05:03:38;;;;;;;7.00;4.32;;;;;;;26.74;33.28;99013.72;4452784;32;34053;-58
2022/07/26 05:06:05;;;;;;;8.20;5.20;;;;;;;27.07;33.06;99013.13;4452558;32;33171;-59
2022/07/26 05:08:33;;;;;;;9.55;5.03;;;;;;;27.28;32.58;99010.87;4455256;32;34922;-59
2022/07/26 05:11:00;;;;;;;9.93;4.62;;;;;;;27.42;31.60;99001.31;4464538;32;33766;-58
2022/07/26 05:13:28;;;;;;;9.45;4.82;;;;;;;27.42;32.05;98998.56;4452385;32;34072;-59
2022/07/26 05:15:58;;;;;;;9.23;4.30;;;;;;;27.60;31.76;99006.62;4453006;32;34025;-60
2022/07/26 05:18:26;;;;;;;13.05;5.00;;;;;;;27.58;31.62;99007.97;4451883;32;33595;-61
2022/07/26 05:20:57;;;;;;;7.97;4.85;;;;;;;27.63;31.28;99008.88;4446996;32;33651;-58
2022/07/26 05:23:25;;;;;;;7.90;4.25;;;;;;;27.83;31.18;99010.41;4460160;32;33921;-59
2022/07/26 05:25:54;;;;;;;10.93;4.85;;;;;;;27.74;32.03;99014.59;4456594;32;33821;-58
2022/07/26 05:28:22;;;;;;;10.77;5.03;;;;;;;27.92;31.68;99010.84;4458142;32;32312;-60
2022/07/26 05:30:49;;;;;;;11.82;5.00;;;;;;;27.84;31.51;99006.59;4459286;32;32484;-61
2022/07/26 05:33:17;;;;;;;10.65;5.07;;;;;;;27.98;31.64;99010.69;4458912;32;33899;-60
2022/07/26 05:35:45;;;;;;;7.97;4.62;;;;;;;27.93;31.85;99007.88;4466404;32;33523;-61
2022/07/26 05:38:12;;;;;;;8.90;5.07;;;;;;;28.10;31.94;98999.66;4453211;32;33816;-60
2022/07/26 05:40:40;;;;;;;8.93;5.20;;;;;;;27.56;32.76;99002.69;4463219;32;35106;-59
2022/07/26 05:43:10;;;;;;;12.25;5.82;;;;;;;27.87;32.77;99000.59;4463023;32;34834;-61
2022/07/26 05:45:38;;;;;;;9.10;5.43;;;;;;;28.11;33.32;99015.06;4462098;32;34417;-59
2022/07/26 05:48:06;;;;;;;9.05;5.10;;;;;;;27.76;34.68;99001.44;4464941;32;34691;-60
2022/07/26 05:50:33;;;;;;;10.75;5.30;;;;;;;27.62;35.51;99000.88;4463549;32;35401;-59
2022/07/26 05:53:01;;;;;;;9.48;5.20;;;;;;;27.75;35.67;99000.59;4464802;32;33689;-60
2022/07/26 05:55:28;;;;;;;13.95;5.93;;;;;;;27.41;36.28;99010.59;4457316;32;33325;-58
2022/07/26 05:57:56;;;;;;;6.95;5.05;;;;;;;28.03;35.83;99004.47;4457570;32;32668;-60
2022/07/26 06:00:24;;;;;;;9.10;5.55;;;;;;;27.89;36.57;98994.84;4465896;32;32447;-61
2022/07/26 06:02:52;;;;;;;8.75;4.87;;;;;;;28.13;36.65;98998.34;4460236;32;35349;-60
2022/07/26 06:05:20;;;;;;;10.85;5.60;;;;;;;28.20;36.93;98997.09;4454650;32;34194;-61
2022/07/26 06:07:47;;;;;;;11.82;5.65;;;;;;;27.72;38.34;98994.75;4455161;32;33749;-60
2022/07/26 06:10:15;;;;;;;10.38;5.60;;;;;;;27.83;38.86;99007.66;4459260;32;33904;-61
2022/07/26 06:12:42;;;;;;;9.02;5.12;;;;;;;27.80;38.79;99002.63;4462463;32;35346;-61
2022/07/26 06:15:10;;;;;;;13.88;6.07;;;;;;;27.89;39.22;99006.66;4463549;32;33221;-59
2022/07/26 06:17:42;;;;;;;16.33;7.53;;;;;;;28.00;40.52;99015.97;4463615;32;33580;-59
2022/07/26 06:20:10;;;;;;;12.65;6.30;;;;;;;27.39;43.20;99012.78;4461578;32;33895;-59
2022/07/26 06:22:38;;;;;;;13.32;6.82;;;;;;;28.16;42.12;99015.16;4468739;32;33746;-58
2022/07/26 06:25:06;;;;;;;13.80;6.32;;;;;;;27.67;43.43;99014.72;4468969;32;33411;-60
2022/07/26 06:27:33;;;;;;;11.70;7.03;;;;;;;27.82;42.69;99008.72;4466835;32;33978;-59
2022/07/26 06:30:01;;;;;;;12.35;6.97;;;;;;;28.22;42.94;99011.44;4440386;32;34927;-61
2022/07/26 06:32:29;;;;;;;8.65;6.43;;;;;;;27.49;44.29;99010.25;4462730;32;35109;-59
2022/07/26 06:34:56;;;;;;;12.15;6.78;;;;;;;27.86;43.68;99015.41;4464872;32;32351;-60
2022/07/26 06:37:24;;;;;;;11.48;6.28;;;;;;;27.69;43.96;99012.56;4455330;32;33525;-59
2022/07/26 06:39:52;;;;;;;13.48;6.15;;;;;;;27.74;43.27;99006.34;4466228;32;33761;-61
2022/07/26 06:42:19;;;;;;;10.77;5.47;;;;;;;27.84;43.78;99009.34;4456590;32;32691;-60
2022/07/26 06:44:47;;;;;;;10.45;5.78;;;;;;;28.05;43.37;99000.38;4458111;32;34468;-61
2022/07/26 06:47:15;;;;;;;13.10;6.47;;;;;;;27.66;44.15;99003.97;4453884;32;33902;-59
2022/07/26 06:49:43;;;;;;;11.23;5.80;;;;;;;27.72;44.33;99000.25;4453334;32;34037;-61
2022/07/26 06:52:11;;;;;;;10.48;6.05;;;;;;;27.86;44.17;99005.28;4461935;32;35088;-59
2022/07/26 06:54:38;;;;;;;13.98;5.85;;;;;;;27.57;44.33;98992.53;4464551;32;34162;-61
2022/07/26 06:57:06;;;;;;;11.02;6.53;;;;;;;28.12;44.32;99000.22;4458617;32;35063;-60
2022/07/26 06:59:34;;;;;;;14.80;6.03;;;;;;;28.08;43.65;98996.31;4452662;32;32374;-61
2022/07/26 07:02:03;;;;;;;8.02;5.55;;;;;;;27.94;43.54;98993.03;4460333;32;33755;-59
2022/07/26 07:04:31;;;;;;;10.38;6.30;;;;;;;28.11;43.45;98990.31;4465293;32;33319;-60
2022/07/26 07:07:04;;;;;;;9.43;6.10;;;;;;;28.26;42.92;98987.00;4453041;32;33957;-59
2022/07/26 07:09:34;;;;;;;11.13;6.83;;;;;;;27.98;44.01;98977.69;4456219;32;33858;-59
2022/07/26 07:12:03;;;;;;;9.93;5.93;;;;;;;28.15;43.68;98994.22;4453693;32;33867;-59
2022/07/26 07:14:37;;;;;;;10.57;5.97;;;;;;;28.48;42.76;98984.41;4454890;32;34117;-58
2022/07/26 07:17:06;;;;;;;10.68;5.95;;;;;;;28.67;42.57;98980.31;4457747;32;33908;-60
2022/07/26 07:19:40;;;;;;;11.80;5.68;;;;;;;28.73;42.19;98990.31;4452880;32;35035;-59
2022/07/26 07:22:10;;;;;;;11.48;5.93;;;;;;;28.77;42.55;98985.97;4461365;32;32516;-58
2022/07/26 07:24:39;;;;;;;10.90;5.50;;;;;;;29.20;41.71;98975.31;4469496;32;33390;-59
2022/07/26 07:27:08;;;;;;;12.37;6.20;;;;;;;28.95;41.74;98993.09;4463721;32;35400;-59
2022/07/26 07:29:37;;;;;;;9.48;4.57;;;;;;;29.19;41.48;98992.94;4457534;32;33730;-59
2022/07/26 07:32:08;;;;;;;12.35;5.78;;;;;;;28.96;41.56;98997.53;4453393;32;126243;-59
2022/07/26 07:34:49;;;;;;;13.10;6.07;;;;;;;29.02;41.39;98998.47;4452585;32;32818;-61
2022/07/26 07:37:17;;;;;;;8.80;5.50;;;;;;;28.61;42.08;98991.47;4460681;32;33651;-61
2022/07/26 07:39:47;;;;;;;11.50;5.25;;;;;;;29.22;41.08;98992.44;4468346;32;34039;-59
2022/07/26 07:42:18;;;;;;;8.07;4.80;;;;;;;29.15;41.37;98981.59;4466501;32;32889;-61
2022/07/26 07:44:46;;;;;;;9.25;4.80;;;;;;;29.12;41.35;98995.87;4461584;32;34776;-59
2022/07/26 07:47:13;;;;;;;11.00;5.15;;;;;;;29.22;41.43;99003.44;4454803;32;34061;-61
2022/07/26 07:49:41;;;;;;;9.38;5.20;;;;;;;28.81;41.56;98999.22;4453297;32;34102;-60
2022/07/26 07:52:09;;;;;;;8.43;5.30;;;;;;;29.05;41.74;98997.13;4451142;32;33709;-58
2022/07/26 07:54:37;;;;;;;8.98;5.20;;;;;;;29.12;41.19;99008.81;4454524;32;33219;-59
2022/07/26 07:57:04;;;;;;;11.12;5.20;;;;;;;28.82;41.95;99023.75;4465467;32;33547;-59
2022/07/26 07:59:32;;;;;;;7.85;5.10;;;;;;;28.73;42.43;99019.75;4457026;32;34063;-59
2022/07/26 08:02:05;;;;;;;9.15;4.95;;;;;;;28.62;42.75;99021.50;4460069;32;34856;-59
2022/07/26 08:04:33;;;;;;;8.10;4.87;;;;;;;28.54;43.12;99036.53;4453654;32;31817;-60
2022/07/26 08:07:01;;;;;;;8.23;4.97;;;;;;;28.59;43.41;99022.00;4453344;32;35463;-58
2022/07/26 08:09:28;;;;;;;9.32;5.12;;;;;;;28.65;43.22;99029.25;4463233;32;33004;-59
2022/07/26 08:12:01;;;;;;;9.90;5.15;;;;;;;28.27;43.95;99018.94;4452996;32;33736;-61
2022/07/26 08:14:29;;;;;;;9.27;5.80;;;;;;;28.30;44.29;99008.25;4461169;32;34154;-59
2022/07/26 08:16:56;;;;;;;8.32;6.25;;;;;;;28.75;43.39;99009.31;4463772;32;32808;-60
2022/07/26 08:19:25;;;;;;;10.30;5.22;;;;;;;28.47;44.39;99012.97;4467814;32;33834;-58
2022/07/26 08:22:07;;;;;;;10.93;5.68;;;;;;;28.61;44.13;99008.00;4457331;32;34624;-59
2022/07/26 08:24:35;;;;;;;9.20;5.07;;;;;;;28.98;43.31;99013.81;4452723;32;32283;-60
2022/07/26 08:27:03;;;;;;;6.72;4.75;;;;;;;28.93;42.84;99022.84;4462267;32;34723;-59
2022/07/26 08:29:30;;;;;;;9.88;4.57;;;;;;;28.50;43.96;99015.22;4458118;32;34362;-59
2022/07/26 08:31:58;;;;;;;8.70;5.03;;;;;;;28.75;43.73;99017.59;4451907;32;32971;-60
2022/07/26 08:34:26;;;;;;;6.95;4.87;;;;;;;29.07;43.20;99012.31;4454059;32;33328;-59
2022/07/26 08:36:53;;;;;;;8.38;5.45;;;;;;;28.99;43.09;99009.97;4452642;32;32724;-61
2022/07/26 08:39:41;;;;;;;9.30;5.60;;;;;;;29.37;42.10;99008.31;4456066;32;34197;-60
2022/07/26 08:42:13;;;;;;;9.05;5.10;;;;;;;29.06;42.54;99005.16;4467320;32;33781;-61
2022/07/26 08:44:46;;;;;;;6.95;4.60;;;;;;;28.89;43.04;99010.66;4459928;32;33237;-58
2022/07/26 08:47:15;;;;;;;7.82;4.68;;;;;;;28.86;43.18;99002.91;4456958;32;33740;-60
2022/07/26 08:50:02;;;;;;;7.65;4.53;;;;;;;28.81;43.11;98989.03;4458951;32;34115;-59
2022/07/26 08:52:29;;;;;;;7.25;4.68;;;;;;;28.97;43.04;98995.63;4467723;32;33613;-59
2022/07/26 08:54:57;;;;;;;8.90;5.00;;;;;;;29.00;42.65;99000.63;4468043;32;33335;-59
2022/07/26 08:57:25;;;;;;;9.07;4.70;;;;;;;28.83;43.39;99000.66;4459939;32;33795;-60
2022/07/26 09:00:14;;;;;;;9.45;4.78;;;;;;;29.21;43.33;99005.38;4461768;32;34044;-59
2022/07/26 09:02:42;;;;;;;7.05;4.90;;;;;;;29.65;41.93;99004.59;4465549;32;32759;-59
2022/07/26 09:05:10;;;;;;;8.82;4.93;;;;;;;29.36;41.68;99010.25;4465276;32;33605;-60
2022/07/26 09:07:39;;;;;;;6.82;4.50;;;;;;;29.63;41.01;99018.63;4455487;32;33470;-60
2022/07/26 09:10:09;;;;;;;11.07;5.30;;;;;;;29.30;41.39;99021.47;4446482;32;32708;-61
2022/07/26 09:12:38;;;;;;;7.20;5.05;;;;;;;29.30;42.26;99032.47;4458616;32;33970;-60
2022/07/26 09:15:15;;;;;;;7.15;5.00;;;;;;;29.64;41.59;99038.78;4454758;32;33353;-60
2022/07/26 09:17:45;;;;;;;8.07;5.00;;;;;;;29.34;41.95;99042.75;4455025;32;34974;-59
2022/07/26 09:20:16;;;;;;;7.05;4.78;;;;;;;29.42;42.11;99050.56;4455936;32;33952;-61
2022/07/26 09:23:05;;;;;;;8.30;5.28;;;;;;;28.91;42.89;99065.47;4459204;32;33666;-60
2022/07/26 09:25:38;;;;;;;8.10;4.70;;;;;;;28.72;43.62;99068.47;4455046;32;34166;-60
2022/07/26 09:28:29;;;;;;;7.60;4.72;;;;;;;28.73;43.74;99086.69;4454749;32;33549;-60
2022/07/26 09:31:02;;;;;;;7.30;4.60;;;;;;;28.59;44.15;99096.31;4457796;32;34036;-59
2022/07/26 09:33:47;;;;;;;7.87;5.20;;;;;;;28.52;44.08;99124.00;4455408;32;33801;-59
2022/07/26 09:36:16;;;;;;;9.52;5.60;;;;;;;28.57;44.20;99148.03;4449573;32;33086;-60
2022/07/26 09:38:49;;;;;;;8.70;5.15;;;;;;;28.42;44.51;99153.28;4460418;32;33663;-61
2022/07/26 09:41:21;;;;;;;8.80;5.37;;;;;;;28.36;44.68;99178.97;4451714;32;33851;-60
2022/07/26 09:43:49;;;;;;;8.85;5.85;;;;;;;28.28;45.02;99170.03;4462663;32;32544;-60
2022/07/26 09:46:22;;;;;;;8.30;5.43;;;;;;;27.24;47.13;99158.03;4459921;32;34548;-59
2022/07/26 09:48:51;;;;;;;10.15;5.03;;;;;;;27.71;45.91;99120.38;4458136;32;33680;-59
2022/07/26 09:51:42;;;;;;;11.50;5.15;;;;;;;28.10;45.45;99126.19;4460046;32;34909;-59
2022/07/26 09:54:11;;;;;;;16.02;5.68;;;;;;;27.35;50.77;99135.22;4463895;32;34913;-59
2022/07/26 09:56:49;;;;;;;11.45;5.72;;;;;;;26.98;52.32;99160.13;4463039;32;33695;-59
2022/07/26 09:59:19;;;;;;;9.88;5.57;;;;;;;27.20;54.21;99167.84;4448862;32;32268;-63
2022/07/26 10:01:47;;;;;;;7.93;5.70;;;;;;;27.30;54.20;99162.59;4439963;32;33874;-62
2022/07/26 10:04:16;;;;;;;10.45;5.80;;;;;;;26.53;56.90;99126.81;4455973;32;34018;-63
2022/07/26 10:06:43;;;;;;;10.10;6.95;;;;;;;25.65;61.50;99100.66;4442236;32;31957;-63
2022/07/26 10:09:12;;;;;;;11.65;6.50;;;;;;;26.12;60.17;99114.69;4455427;32;32555;-62
2022/07/26 10:11:51;;;;;;;12.27;6.20;;;;;;;26.23;59.62;99113.91;4453278;32;33864;-62
2022/07/26 10:14:36;;;;;;;8.70;6.32;;;;;;;26.33;60.61;99116.94;4465930;32;33621;-63
2022/07/26 10:17:26;;;;;;;10.82;6.62;;;;;;;26.38;59.66;99141.75;4447445;32;32027;-63
2022/07/26 10:20:05;;;;;;;7.97;6.20;;;;;;;26.16;62.40;99163.37;4457080;32;33978;-61
2022/07/26 10:22:49;;;;;;;12.07;6.65;;;;;;;25.29;64.62;99159.81;4457755;32;34178;-62
2022/07/26 10:25:16;;;;;;;10.70;6.65;;;;;;;25.71;64.68;99149.06;4453795;32;33734;-62
2022/07/26 10:27:45;;;;;;;11.18;7.25;;;;;;;25.61;63.53;99163.31;4464764;32;34047;-61
2022/07/26 10:30:21;;;;;;;12.35;7.43;;;;;;;24.73;65.91;99174.34;4453181;32;33519;-63
2022/07/26 10:33:00;;;;;;;11.95;7.25;;;;;;;24.10;68.76;99177.78;4455667;32;33993;-62
2022/07/26 10:35:30;;;;;;;9.23;6.37;;;;;;;24.82;67.96;99176.59;4425222;32;32470;-61
2022/07/26 10:38:03;;;;;;;11.07;7.47;;;;;;;24.69;68.13;99179.41;4456018;32;32609;-63
2022/07/26 10:40:31;;;;;;;11.63;7.50;;;;;;;24.68;67.75;99176.88;4440236;32;32265;-63
2022/07/26 10:43:13;;;;;;;13.50;8.35;;;;;;;24.90;67.09;99169.16;4461583;32;33737;-62
2022/07/26 10:46:27;;;;;;;9.88;6.68;;;;;;;24.44;68.32;99168.41;4440854;32;32526;-61
2022/07/26 10:49:05;;;;;;;11.10;7.87;;;;;;;24.39;68.19;99185.41;4452601;32;32362;-63
2022/07/26 10:51:35;;;;;;;12.10;7.97;;;;;;;24.73;66.84;99174.34;4457208;32;34983;-63
2022/07/26 10:54:11;;;;;;;10.88;8.15;;;;;;;24.86;66.62;99174.25;4443168;32;33725;-62
2022/07/26 10:56:40;;;;;;;10.48;8.23;;;;;;;25.00;67.64;99181.28;4460917;32;34480;-63
2022/07/26 10:59:08;;;;;;;12.57;8.48;;;;;;;24.85;67.34;99184.34;4462134;32;32281;-62
2022/07/26 11:01:40;;;;;;;10.32;7.93;;;;;;;24.87;68.16;99195.91;4445518;32;34873;-62
2022/07/26 11:04:19;;;;;;;8.45;6.05;;;;;;;24.91;67.19;99193.59;4459696;32;34769;-61
2022/07/26 11:06:47;;;;;;;11.45;8.05;;;;;;;24.53;69.01;99190.88;4442750;32;32339;-62
2022/07/26 11:09:17;;;;;;;12.50;8.25;;;;;;;24.43;68.48;99187.75;4460850;32;34064;-62
2022/07/26 11:11:47;;;;;;;11.98;7.87;;;;;;;24.22;68.76;99175.22;4463393;32;33951;-62
2022/07/26 11:14:15;;;;;;;11.05;7.45;;;;;;;24.56;66.47;99180.34;4463003;32;33480;-62
2022/07/26 11:16:46;;;;;;;11.27;7.57;;;;;;;24.82;66.23;99189.44;4458644;32;33679;-61
2022/07/26 11:19:23;;;;;;;11.90;7.65;;;;;;;24.95;65.46;99178.41;4458392;32;33390;-63
2022/07/26 11:21:57;;;;;;;10.68;7.32;;;;;;;25.38;64.88;99176.81;4450091;32;33148;-62
2022/07/26 11:24:26;;;;;;;11.90;7.60;;;;;;;25.21;63.55;99168.34;4461552;32;35423;-61
2022/07/26 11:26:54;;;;;;;11.82;7.22;;;;;;;25.46;63.39;99173.81;4460585;32;33818;-61
2022/07/26 11:29:33;;;;;;;11.12;7.28;;;;;;;25.05;62.99;99170.53;4462859;32;33344;-62
2022/07/26 11:32:18;;;;;;;9.45;7.10;;;;;;;24.80;63.56;99175.97;4456615;32;34066;-63
2022/07/26 11:35:03;;;;;;;10.38;6.72;;;;;;;25.29;62.70;99179.81;4455673;32;35292;-62
2022/07/26 11:37:31;;;;;;;10.52;6.70;;;;;;;25.30;63.68;99180.69;4454848;32;34076;-62
2022/07/26 11:39:58;;;;;;;9.32;6.72;;;;;;;25.40;61.84;99178.28;4454275;32;33714;-63
2022/07/26 11:42:26;;;;;;;8.93;6.97;;;;;;;25.17;63.21;99175.28;4456514;32;34750;-63
2022/07/26 11:44:54;;;;;;;10.80;7.82;;;;;;;25.26;63.20;99173.97;4458444;32;33869;-62